Time;durP1;ratioP1;P1;durP2;ratioP2;P2;SDS_P1;SDS_P2;PMS_P1;PMS_P2;Temp;Humidity;BMP_temperature;BMP_pressure;BME280_temperature;BME280_humidity;BME280_pressure;Samples;Min_cycle;Max_cycle;Signal;HPM_P1;HPM_P2
2023/09/18 00:02:04;;;;;;;;;;;;;;;19.21;37.29;101297.94;5073675;28;19920;-64
2023/09/18 00:04:29;;;;;;;;;;;;;;;19.26;36.82;101299.97;5075002;28;19913;-64
2023/09/18 00:06:55;;;;;;;;;;;;;;;19.30;36.84;101309.34;5074953;28;19919;-64
2023/09/18 00:09:20;;;;;;;;;;;;;;;19.30;37.28;101301.19;5074940;28;19924;-64
2023/09/18 00:11:45;;;;;;;;;;;;;;;19.31;36.80;101300.94;5055516;28;19917;-64
2023/09/18 00:14:11;;;;;;;;;;;;;;;19.31;37.07;101300.94;5055037;28;20377;-64
2023/09/18 00:16:36;;;;;;;;;;;;;;;19.33;36.90;101290.66;5080873;28;19966;-64
2023/09/18 00:19:02;;;;;;;;;;;;;;;19.36;36.83;101281.19;5095281;28;19947;-64
2023/09/18 00:21:30;;;;;;;;;;;;;;;19.37;36.96;101280.13;5095264;28;19919;-64
2023/09/18 00:23:56;;;;;;;;;;;;;;;19.34;36.50;101281.41;5084081;28;19921;-64
2023/09/18 00:26:23;;;;;;;;;;;;;;;19.33;37.20;101285.22;5075038;28;19913;-64
2023/09/18 00:28:48;;;;;;;;;;;;;;;19.33;36.92;101278.91;5083965;28;19962;-64
2023/09/18 00:31:14;;;;;;;;;;;;;;;19.38;37.81;101262.72;5074848;28;19932;-64
2023/09/18 00:33:39;;;;;;;;;;;;;;;19.42;36.38;101268.53;5074625;28;20286;-64
2023/09/18 00:36:04;;;;;;;;;;;;;;;19.40;36.71;101262.47;5074853;28;19913;-64
2023/09/18 00:38:29;;;;;;;;;;;;;;;19.43;37.59;101253.84;5074917;28;20042;-64
2023/09/18 00:40:55;;;;;;;;;;;;;;;19.38;37.47;101249.09;5074381;28;19943;-64
2023/09/18 00:43:21;;;;;;;;;;;;;;;19.39;37.28;101242.59;5074294;28;19923;-64
2023/09/18 00:45:47;;;;;;;;;;;;;;;19.46;36.84;101247.91;5071000;28;19967;-64
2023/09/18 00:48:14;;;;;;;;;;;;;;;19.47;36.71;101227.81;5054484;28;19913;-64
2023/09/18 00:50:39;;;;;;;;;;;;;;;19.44;36.93;101230.97;5070994;28;20373;-64
2023/09/18 00:53:07;;;;;;;;;;;;;;;19.45;36.83;101224.47;5073860;28;19916;-64
2023/09/18 00:55:32;;;;;;;;;;;;;;;19.44;37.32;101215.47;5081015;28;19918;-64
2023/09/18 00:57:58;;;;;;;;;;;;;;;19.42;36.74;101209.41;5094184;28;19912;-64
2023/09/18 01:00:23;;;;;;;;;;;;;;;19.44;37.43;101201.84;5092022;28;19962;-64
2023/09/18 01:02:48;;;;;;;;;;;;;;;19.45;37.11;101199.97;5060339;28;19913;-64
2023/09/18 01:05:16;;;;;;;;;;;;;;;19.36;36.48;101188.56;5053986;28;20331;-64
2023/09/18 01:07:42;;;;;;;;;;;;;;;19.40;37.37;101184.31;5053722;28;19920;-64
2023/09/18 01:10:09;;;;;;;;;;;;;;;19.42;36.82;101193.06;5059712;28;19913;-64
2023/09/18 01:12:39;;;;;;;;;;;;;;;19.47;37.45;101192.38;5073375;28;19920;-64
2023/09/18 01:15:12;;;;;;;;;;;;;;;19.47;36.74;101182.31;5074105;28;20276;-64
2023/09/18 01:17:40;;;;;;;;;;;;;;;19.46;36.85;101185.25;5093986;28;20372;-64
2023/09/18 01:20:08;;;;;;;;;;;;;;;19.48;36.94;101178.53;5083631;28;19939;-64
2023/09/18 01:22:34;;;;;;;;;;;;;;;19.43;37.29;101164.78;5073441;28;19916;-64
2023/09/18 01:24:59;;;;;;;;;;;;;;;19.46;37.50;101168.91;5073733;28;20376;-64
2023/09/18 01:27:24;;;;;;;;;;;;;;;19.42;37.39;101162.28;5073542;28;19912;-64
2023/09/18 01:29:50;;;;;;;;;;;;;;;19.44;36.98;101152.81;5073625;28;19912;-64
2023/09/18 01:32:16;;;;;;;;;;;;;;;19.46;37.27;101149.84;5073419;28;19974;-64
2023/09/18 01:34:48;;;;;;;;;;;;;;;19.43;37.11;101143.00;5073436;28;19912;-64
2023/09/18 01:37:15;;;;;;;;;;;;;;;19.42;37.56;101146.75;5073287;28;19919;-64
2023/09/18 01:39:41;;;;;;;;;;;;;;;19.43;37.39;101136.72;5073223;28;20337;-64
2023/09/18 01:42:06;;;;;;;;;;;;;;;19.42;37.18;101145.94;5073125;28;19916;-64
2023/09/18 01:44:33;;;;;;;;;;;;;;;19.39;37.28;101154.56;5073303;28;19919;-64
2023/09/18 01:46:59;;;;;;;;;;;;;;;19.41;35.92;101166.91;5073318;28;20285;-64
2023/09/18 01:49:28;;;;;;;;;;;;;;;19.16;37.27;101164.38;5073337;28;19913;-64
2023/09/18 01:51:53;;;;;;;;;;;;;;;19.16;37.52;101153.47;5073113;28;19938;-64
2023/09/18 01:54:19;;;;;;;;;;;;;;;19.25;37.49;101148.53;5054528;28;19924;-64
2023/09/18 01:56:44;;;;;;;;;;;;;;;19.43;37.67;101136.72;5087811;28;19913;-64
2023/09/18 01:59:09;;;;;;;;;;;;;;;19.58;37.11;101131.63;5073344;28;20269;-64
2023/09/18 02:01:35;;;;;;;;;;;;;;;19.69;37.30;101119.88;5069306;28;19913;-64
2023/09/18 02:04:00;;;;;;;;;;;;;;;19.74;36.65;101116.47;5053013;28;19913;-64
2023/09/18 02:06:25;;;;;;;;;;;;;;;19.76;36.68;101119.81;5052962;28;19966;-64
2023/09/18 02:08:50;;;;;;;;;;;;;;;19.99;36.27;101116.19;5053234;28;19971;-64
2023/09/18 02:11:16;;;;;;;;;;;;;;;20.06;36.20;101127.81;5068672;28;19923;-64
2023/09/18 02:13:42;;;;;;;;;;;;;;;20.06;36.20;101137.88;5072994;28;19916;-64
2023/09/18 02:16:07;;;;;;;;;;;;;;;20.00;36.02;101147.84;5073433;28;19920;-64
2023/09/18 02:18:32;;;;;;;;;;;;;;;19.98;35.76;101132.78;5073306;28;19991;-64
2023/09/18 02:20:58;;;;;;;;;;;;;;;19.91;36.20;101133.75;5073081;28;20361;-64
2023/09/18 02:23:23;;;;;;;;;;;;;;;19.88;36.24;101136.94;5073304;28;19912;-64
2023/09/18 02:25:55;;;;;;;;;;;;;;;19.87;35.74;101132.59;5075890;28;20356;-65
2023/09/18 02:28:20;;;;;;;;;;;;;;;19.84;35.75;101132.22;5086001;28;19958;-64
2023/09/18 02:30:45;;;;;;;;;;;;;;;19.81;35.93;101135.44;5076788;28;19955;-64
2023/09/18 02:33:12;;;;;;;;;;;;;;;19.77;35.87;101128.78;5077054;28;20265;-64
2023/09/18 02:35:37;;;;;;;;;;;;;;;19.76;36.51;101125.25;5077050;28;20038;-64
2023/09/18 02:38:03;;;;;;;;;;;;;;;19.81;36.93;101119.06;5075228;28;20339;-64
2023/09/18 02:40:28;;;;;;;;;;;;;;;19.77;36.94;101118.72;5056737;28;19958;-63
2023/09/18 02:42:53;;;;;;;;;;;;;;;19.76;37.13;101127.13;5056680;28;20015;-63
2023/09/18 02:45:18;;;;;;;;;;;;;;;19.73;36.91;101120.25;5056820;28;19944;-63
2023/09/18 02:47:43;;;;;;;;;;;;;;;19.68;36.78;101111.94;5056557;28;19920;-63
2023/09/18 02:50:10;;;;;;;;;;;;;;;19.65;37.42;101099.63;5069486;28;20379;-63
2023/09/18 02:52:36;;;;;;;;;;;;;;;19.59;37.58;101100.56;5076297;28;19920;-63
2023/09/18 02:55:01;;;;;;;;;;;;;;;19.60;36.91;101093.25;5078747;28;19923;-63
2023/09/18 02:57:26;;;;;;;;;;;;;;;19.58;37.02;101087.19;5096713;28;20003;-63
2023/09/18 02:59:51;;;;;;;;;;;;;;;19.53;37.45;101083.28;5096862;28;19912;-63
2023/09/18 03:02:17;;;;;;;;;;;;;;;19.52;37.40;101072.63;5086770;28;19913;-63
2023/09/18 03:04:42;;;;;;;;;;;;;;;19.51;37.56;101065.53;5076356;28;20010;-63
2023/09/18 03:07:07;;;;;;;;;;;;;;;19.49;37.77;101071.19;5076150;28;19913;-63
2023/09/18 03:09:32;;;;;;;;;;;;;;;19.51;38.10;101054.63;5074769;28;19955;-63
2023/09/18 03:11:58;;;;;;;;;;;;;;;19.50;37.94;101048.34;5060978;28;19917;-63
2023/09/18 03:14:23;;;;;;;;;;;;;;;19.49;37.92;101043.97;5075965;28;20278;-63
2023/09/18 03:16:48;;;;;;;;;;;;;;;19.50;37.85;101042.91;5076022;28;19913;-63
2023/09/18 03:19:13;;;;;;;;;;;;;;;19.53;37.64;101028.78;5075812;28;19924;-63
2023/09/18 03:21:40;;;;;;;;;;;;;;;19.49;37.94;101033.06;5075978;28;19935;-64
2023/09/18 03:24:06;;;;;;;;;;;;;;;19.56;38.52;101037.53;5075752;28;19916;-63
2023/09/18 03:26:31;;;;;;;;;;;;;;;19.58;37.83;101032.72;5075856;28;19919;-63
2023/09/18 03:28:56;;;;;;;;;;;;;;;19.51;38.19;101028.19;5084712;28;19920;-63
2023/09/18 03:31:22;;;;;;;;;;;;;;;19.48;37.79;101008.78;5075856;28;19913;-64
2023/09/18 03:33:47;;;;;;;;;;;;;;;19.47;38.09;101007.13;5075905;28;19924;-64
2023/09/18 03:36:13;;;;;;;;;;;;;;;19.46;37.99;101010.91;5057910;28;20380;-63
2023/09/18 03:38:38;;;;;;;;;;;;;;;19.49;37.86;101011.25;5055675;28;19920;-62
2023/09/18 03:41:04;;;;;;;;;;;;;;;19.48;38.26;101000.59;5055653;28;19913;-61
2023/09/18 03:43:29;;;;;;;;;;;;;;;19.50;38.40;100998.47;5055822;28;20019;-62
2023/09/18 03:45:54;;;;;;;;;;;;;;;19.49;37.87;101002.28;5056065;28;19975;-64
2023/09/18 03:48:20;;;;;;;;;;;;;;;19.47;38.19;100996.25;5055550;28;19951;-62
2023/09/18 03:50:47;;;;;;;;;;;;;;;19.47;39.01;100986.16;5073502;28;19912;-62
2023/09/18 03:53:12;;;;;;;;;;;;;;;19.47;38.03;100978.00;5075891;28;19970;-64
2023/09/18 03:55:37;;;;;;;;;;;;;;;19.45;39.19;100977.41;5075090;28;19916;-63
2023/09/18 03:58:04;;;;;;;;;;;;;;;19.49;38.00;100973.13;5075649;28;19999;-63
2023/09/18 04:00:30;;;;;;;;;;;;;;;19.47;38.35;100980.72;5075729;28;19920;-62
2023/09/18 04:02:55;;;;;;;;;;;;;;;19.50;38.45;100982.97;5075311;28;19916;-63
2023/09/18 04:05:20;;;;;;;;;;;;;;;19.50;38.02;100987.56;5075363;28;19913;-63
2023/09/18 04:07:46;;;;;;;;;;;;;;;19.46;38.47;100978.22;5075187;28;19916;-63
2023/09/18 04:10:17;;;;;;;;;;;;;;;19.47;38.51;100971.72;5074976;28;20381;-63
2023/09/18 04:12:43;;;;;;;;;;;;;;;19.48;38.19;100967.91;5075069;28;19923;-63
2023/09/18 04:15:08;;;;;;;;;;;;;;;19.47;38.76;100972.53;5075613;28;20007;-63
2023/09/18 04:17:33;;;;;;;;;;;;;;;19.48;39.06;100966.03;5095251;28;19912;-63
2023/09/18 04:19:58;;;;;;;;;;;;;;;19.49;39.59;100964.13;5074715;28;19919;-63
2023/09/18 04:22:24;;;;;;;;;;;;;;;19.50;39.75;100965.78;5074863;28;19919;-63
2023/09/18 04:24:49;;;;;;;;;;;;;;;19.45;40.02;100960.25;5074907;28;19938;-63
2023/09/18 04:27:14;;;;;;;;;;;;;;;19.45;40.51;100960.25;5079657;28;19912;-63
2023/09/18 04:29:39;;;;;;;;;;;;;;;19.41;40.44;100949.00;5079055;28;19947;-63
2023/09/18 04:32:06;;;;;;;;;;;;;;;19.41;40.58;100946.28;5060477;28;20384;-63
2023/09/18 04:34:31;;;;;;;;;;;;;;;19.36;41.15;100942.63;5054558;28;20289;-63
2023/09/18 04:36:56;;;;;;;;;;;;;;;19.33;41.92;100941.19;5054629;28;19912;-63
2023/09/18 04:39:22;;;;;;;;;;;;;;;19.31;42.11;100937.88;5054894;28;20378;-63
2023/09/18 04:41:47;;;;;;;;;;;;;;;19.28;42.82;100927.47;5054753;28;19936;-63
2023/09/18 04:44:14;;;;;;;;;;;;;;;19.29;42.50;100920.94;5054303;28;19913;-63
2023/09/18 04:46:42;;;;;;;;;;;;;;;19.30;42.41;100926.16;5066545;28;19912;-62
2023/09/18 04:49:07;;;;;;;;;;;;;;;19.28;43.11;100939.19;5074124;28;19982;-62
2023/09/18 04:51:33;;;;;;;;;;;;;;;19.22;43.43;100928.41;5074334;28;20392;-63
2023/09/18 04:53:58;;;;;;;;;;;;;;;19.20;43.24;100914.22;5073508;28;19917;-63
2023/09/18 04:56:25;;;;;;;;;;;;;;;19.18;43.34;100925.34;5088703;28;19912;-63
2023/09/18 04:58:51;;;;;;;;;;;;;;;19.21;42.87;100922.16;5094329;28;20377;-63
2023/09/18 05:01:17;;;;;;;;;;;;;;;19.15;42.80;100918.50;5075013;28;20015;-63
2023/09/18 05:03:42;;;;;;;;;;;;;;;19.15;43.04;100913.06;5074345;28;19912;-63
2023/09/18 05:06:07;;;;;;;;;;;;;;;19.14;43.66;100910.56;5074227;28;20387;-63
2023/09/18 05:08:33;;;;;;;;;;;;;;;19.18;43.32;100910.91;5073826;28;19921;-63
2023/09/18 05:10:58;;;;;;;;;;;;;;;19.18;42.58;100903.56;5073864;28;19924;-63
2023/09/18 05:13:24;;;;;;;;;;;;;;;19.18;42.42;100903.56;5073783;28;19966;-63
2023/09/18 05:15:49;;;;;;;;;;;;;;;19.18;43.04;100900.03;5080393;28;19942;-63
2023/09/18 05:18:15;;;;;;;;;;;;;;;19.13;42.88;100892.59;5094306;28;19920;-63
2023/09/18 05:20:40;;;;;;;;;;;;;;;19.14;42.17;100888.78;5093976;28;19912;-63
2023/09/18 05:23:05;;;;;;;;;;;;;;;19.15;42.56;100895.91;5094073;28;19916;-63
2023/09/18 05:25:32;;;;;;;;;;;;;;;19.11;42.60;100891.97;5094495;28;19912;-63
2023/09/18 05:27:59;;;;;;;;;;;;;;;19.11;42.81;100883.81;5091749;28;20044;-63
2023/09/18 05:30:43;;;;;;;;;;;;;;;19.13;42.97;100884.41;5073731;28;19919;-63
2023/09/18 05:33:09;;;;;;;;;;;;;;;19.14;42.34;100886.88;5073762;28;19927;-63
2023/09/18 05:35:36;;;;;;;;;;;;;;;19.13;43.11;100881.69;5073411;28;20230;-63
2023/09/18 05:38:02;;;;;;;;;;;;;;;19.12;42.74;100874.59;5073562;28;20412;-62
2023/09/18 05:40:27;;;;;;;;;;;;;;;19.10;43.01;100887.63;5073484;28;20007;-63
2023/09/18 05:42:53;;;;;;;;;;;;;;;19.15;42.97;100876.84;5073285;28;20050;-62
2023/09/18 05:45:18;;;;;;;;;;;;;;;19.09;42.96;100875.91;5073617;28;20011;-63
2023/09/18 05:47:44;;;;;;;;;;;;;;;19.10;43.11;100879.44;5073445;28;19912;-63
2023/09/18 05:50:14;;;;;;;;;;;;;;;19.07;43.20;100872.56;5073682;28;19913;-63
2023/09/18 05:52:40;;;;;;;;;;;;;;;19.03;43.48;100882.28;5073290;28;19916;-63
2023/09/18 05:55:06;;;;;;;;;;;;;;;18.72;43.57;100821.75;5076312;28;19991;-63
2023/09/18 05:57:32;;;;;;;;;;;;;;;19.07;43.56;100871.75;5093848;28;20369;-63
2023/09/18 05:59:57;;;;;;;;;;;;;;;19.09;43.63;100870.47;5093417;28;19912;-63
2023/09/18 06:02:24;;;;;;;;;;;;;;;19.08;43.27;100876.97;5074199;28;19916;-63
2023/09/18 06:04:53;;;;;;;;;;;;;;;19.09;43.32;100873.19;5073186;28;20365;-63
2023/09/18 06:07:19;;;;;;;;;;;;;;;19.14;43.46;100865.09;5073295;28;19912;-63
2023/09/18 06:09:44;;;;;;;;;;;;;;;19.14;43.25;100862.38;5070474;28;19928;-63
2023/09/18 06:12:09;;;;;;;;;;;;;;;19.16;43.54;100859.41;5070724;28;19958;-63
2023/09/18 06:14:35;;;;;;;;;;;;;;;19.15;43.52;100849.63;5072997;28;20373;-63
2023/09/18 06:17:00;;;;;;;;;;;;;;;19.19;43.15;100839.06;5089387;28;19996;-63
2023/09/18 06:19:25;;;;;;;;;;;;;;;19.18;43.82;100834.69;5093299;28;19916;-63
2023/09/18 06:21:50;;;;;;;;;;;;;;;19.19;43.71;100836.34;5093228;28;19919;-63
2023/09/18 06:24:16;;;;;;;;;;;;;;;19.15;43.69;100836.81;5081447;28;19917;-63
2023/09/18 06:26:41;;;;;;;;;;;;;;;19.16;43.59;100826.75;5073196;28;19912;-63
2023/09/18 06:29:09;;;;;;;;;;;;;;;19.22;43.81;100824.94;5075807;28;19917;-63
2023/09/18 06:31:34;;;;;;;;;;;;;;;19.23;43.72;100822.00;5068539;28;19916;-61
2023/09/18 06:33:59;;;;;;;;;;;;;;;19.27;43.70;100811.44;5073040;28;19916;-61
2023/09/18 06:36:25;;;;;;;;;;;;;;;19.27;43.64;100814.16;5073257;28;20425;-61
2023/09/18 06:38:50;;;;;;;;;;;;;;;19.31;43.76;100798.97;5072643;28;19913;-60
2023/09/18 06:41:15;;;;;;;;;;;;;;;19.32;43.40;100806.09;5073144;28;19948;-61
2023/09/18 06:43:41;;;;;;;;;;;;;;;19.30;43.64;100802.78;5072967;28;19912;-59
2023/09/18 06:46:09;;;;;;;;;;;;;;;19.33;43.38;100799.56;5072762;28;19931;-62
2023/09/18 06:48:34;;;;;;;;;;;;;;;19.37;43.59;100783.56;5054834;28;19919;-63
2023/09/18 06:51:00;;;;;;;;;;;;;;;19.41;43.38;100782.00;5072817;28;19912;-62
2023/09/18 06:53:26;;;;;;;;;;;;;;;19.41;43.46;100777.41;5072620;28;20070;-61
2023/09/18 06:55:52;;;;;;;;;;;;;;;19.39;43.73;100770.53;5082050;28;20345;-61
2023/09/18 06:58:17;;;;;;;;;;;;;;;19.40;43.62;100764.84;5069478;28;19959;-60
2023/09/18 07:00:42;;;;;;;;;;;;;;;19.42;43.75;100756.44;5071346;28;20357;-60
2023/09/18 07:03:09;;;;;;;;;;;;;;;19.42;43.81;100738.19;5071354;28;20281;-60
2023/09/18 07:05:34;;;;;;;;;;;;;;;19.45;43.68;100724.06;5071795;28;20066;-60
2023/09/18 07:08:00;;;;;;;;;;;;;;;19.48;43.72;100722.75;5072240;28;20382;-60
2023/09/18 07:10:26;;;;;;;;;;;;;;;19.50;43.75;100718.72;5064008;28;19912;-61
2023/09/18 07:12:51;;;;;;;;;;;;;;;19.51;43.84;100725.00;5055938;28;19924;-60
2023/09/18 07:15:17;;;;;;;;;;;;;;;19.51;43.19;100730.44;5059983;28;19913;-59
2023/09/18 07:17:42;;;;;;;;;;;;;;;19.50;43.52;100716.00;5096567;28;19912;-60
2023/09/18 07:20:13;;;;;;;;;;;;;;;19.53;43.04;100715.47;5087891;28;19917;-60
2023/09/18 07:22:39;;;;;;;;;;;;;;;19.58;43.09;100716.66;5058303;28;20450;-60
2023/09/18 07:25:04;;;;;;;;;;;;;;;19.58;43.98;100725.66;5076049;28;19912;-61
2023/09/18 07:27:30;;;;;;;;;;;;;;;19.55;43.70;100717.97;5082880;28;19913;-61
2023/09/18 07:29:55;;;;;;;;;;;;;;;19.54;44.06;100714.44;5077881;28;19912;-61
2023/09/18 07:32:21;;;;;;;;;;;;;;;19.58;43.57;100727.56;5075734;28;19913;-61
2023/09/18 07:34:47;;;;;;;;;;;;;;;19.55;43.50;100723.41;5075862;28;19916;-61
2023/09/18 07:37:12;;;;;;;;;;;;;;;19.56;43.26;100726.97;5075981;28;19918;-61
2023/09/18 07:39:42;;;;;;;;;;;;;;;19.53;43.59;100720.94;5076000;28;19916;-61
2023/09/18 07:42:07;;;;;;;;;;;;;;;19.54;43.73;100692.63;5075691;28;19999;-61
2023/09/18 07:44:32;;;;;;;;;;;;;;;19.58;43.68;100679.34;5075767;28;19947;-60
2023/09/18 07:46:58;;;;;;;;;;;;;;;19.61;43.77;100684.28;5075884;28;19912;-61
2023/09/18 07:49:23;;;;;;;;;;;;;;;19.61;43.40;100687.00;5075446;28;19912;-61
2023/09/18 07:51:48;;;;;;;;;;;;;;;19.60;43.62;100690.81;5075342;28;20019;-61
2023/09/18 07:54:15;;;;;;;;;;;;;;;19.63;43.83;100673.13;5074718;28;19927;-61
2023/09/18 07:56:40;;;;;;;;;;;;;;;19.63;43.82;100678.59;5092278;28;19912;-61
2023/09/18 07:59:10;;;;;;;;;;;;;;;19.65;44.10;100695.50;5095599;28;19923;-61
2023/09/18 08:01:35;;;;;;;;;;;;;;;19.66;43.98;100687.09;5091730;28;19912;-61
2023/09/18 08:04:00;;;;;;;;;;;;;;;19.68;43.83;100697.75;5075249;28;19920;-61
2023/09/18 08:06:26;;;;;;;;;;;;;;;19.69;44.10;100702.13;5057392;28;19936;-61
2023/09/18 08:08:51;;;;;;;;;;;;;;;19.70;43.92;100701.84;5074981;28;19928;-60
2023/09/18 08:11:18;;;;;;;;;;;;;;;19.70;44.16;100696.41;5059686;28;19944;-60
2023/09/18 08:13:43;;;;;;;;;;;;;;;19.71;44.22;100691.81;5054920;28;19917;-60
2023/09/18 08:16:09;;;;;;;;;;;;;;;19.68;44.49;100684.13;5066642;28;19912;-61
2023/09/18 08:18:34;;;;;;;;;;;;;;;19.69;44.58;100683.88;5074984;28;20264;-60
2023/09/18 08:21:00;;;;;;;;;;;;;;;19.69;44.57;100680.34;5074979;28;19940;-60
2023/09/18 08:23:25;;;;;;;;;;;;;;;19.66;44.57;100678.91;5073849;28;19995;-59
2023/09/18 08:25:51;;;;;;;;;;;;;;;19.65;44.54;100673.72;5074934;28;19912;-60
2023/09/18 08:28:16;;;;;;;;;;;;;;;19.70;44.62;100676.50;5083772;28;19916;-60
2023/09/18 08:30:46;;;;;;;;;;;;;;;19.71;44.79;100665.38;5074845;28;19912;-59
2023/09/18 08:33:12;;;;;;;;;;;;;;;19.75;44.54;100665.72;5074876;28;19916;-59
2023/09/18 08:35:37;;;;;;;;;;;;;;;19.80;44.24;100662.25;5074751;28;20007;-60
2023/09/18 08:38:03;;;;;;;;;;;;;;;19.77;44.54;100647.22;5074641;28;19920;-59
2023/09/18 08:40:29;;;;;;;;;;;;;;;19.80;45.11;100645.88;5074728;28;19913;-60
2023/09/18 08:42:55;;;;;;;;;;;;;;;19.81;44.56;100647.56;5074525;28;19912;-57
2023/09/18 08:45:31;;;;;;;;;;;;;;;19.84;44.52;100652.50;5074654;28;19917;-59
2023/09/18 08:47:56;;;;;;;;;;;;;;;19.82;44.35;100632.88;5074720;28;20374;-59
2023/09/18 08:50:22;;;;;;;;;;;;;;;19.89;44.60;100633.47;5074302;28;19946;-59
2023/09/18 08:52:48;;;;;;;;;;;;;;;19.89;44.86;100633.47;5074378;28;19916;-60
2023/09/18 08:55:14;;;;;;;;;;;;;;;19.94;44.57;100627.28;5073642;28;19962;-60
2023/09/18 08:57:41;;;;;;;;;;;;;;;19.96;44.73;100636.03;5074364;28;19916;-60
2023/09/18 09:00:07;;;;;;;;;;;;;;;19.98;44.79;100633.88;5056344;28;19923;-60
2023/09/18 09:02:33;;;;;;;;;;;;;;;20.00;45.15;100631.72;5062621;28;19958;-60
2023/09/18 09:04:59;;;;;;;;;;;;;;;20.00;44.67;100613.50;5054208;28;19917;-60
2023/09/18 09:07:25;;;;;;;;;;;;;;;20.06;44.81;100617.09;5054189;28;19912;-60
2023/09/18 09:09:50;;;;;;;;;;;;;;;20.09;44.58;100611.13;5057256;28;19931;-60
2023/09/18 09:12:16;;;;;;;;;;;;;;;20.10;44.46;100601.88;5073854;28;20300;-60
2023/09/18 09:15:01;;;;;;;;;;;;;;;20.14;44.40;100586.66;5074025;28;20003;-60
2023/09/18 09:17:26;;;;;;;;;;;;;;;20.22;44.46;100596.28;5094047;28;19915;-60
2023/09/18 09:20:07;;;;;;;;;;;;;;;20.24;44.37;100594.94;5094264;28;19912;-60
2023/09/18 09:22:33;;;;;;;;;;;;;;;20.27;44.89;100594.44;5094208;28;19939;-60
2023/09/18 09:24:59;;;;;;;;;;;;;;;20.31;44.50;100586.56;5093849;28;19912;-61
2023/09/18 09:27:24;;;;;;;;;;;;;;;20.31;44.76;100573.75;5091647;28;19912;-60
2023/09/18 09:29:59;;;;;;;;;;;;;;;20.32;44.48;100571.88;5076708;28;19917;-60
2023/09/18 09:32:24;;;;;;;;;;;;;;;20.34;44.48;100586.06;5058551;28;19940;-60
2023/09/18 09:34:49;;;;;;;;;;;;;;;20.36;44.79;100574.91;5053253;28;19951;-60
2023/09/18 09:37:14;;;;;;;;;;;;;;;20.38;44.63;100567.28;5053662;28;19912;-60
2023/09/18 09:39:47;;;;;;;;;;;;;;;20.40;44.58;100551.50;5053703;28;19913;-60
2023/09/18 09:42:12;;;;;;;;;;;;;;;20.40;44.69;100546.03;5053440;28;19913;-60
2023/09/18 09:44:38;;;;;;;;;;;;;;;20.43;44.98;100545.50;5053459;28;19936;-60
2023/09/18 09:47:05;;;;;;;;;;;;;;;20.47;44.95;100517.47;5069751;28;19916;-59
2023/09/18 09:49:44;;;;;;;;;;;;;;;20.54;44.52;100517.25;5073325;28;19913;-59
2023/09/18 09:52:19;;;;;;;;;;;;;;;20.56;44.40;100515.09;5073438;28;19999;-60
2023/09/18 09:54:45;;;;;;;;;;;;;;;20.60;44.58;100521.72;5072487;28;19916;-60
2023/09/18 09:57:10;;;;;;;;;;;;;;;20.59;44.56;100511.00;5068635;28;19944;-59
2023/09/18 09:59:35;;;;;;;;;;;;;;;20.62;44.12;100492.25;5053030;28;19913;-60
2023/09/18 10:02:01;;;;;;;;;;;;;;;20.57;44.34;100483.97;5053047;28;19912;-61
2023/09/18 10:04:28;;;;;;;;;;;;;;;20.57;44.64;100478.53;5053478;28;19952;-60
2023/09/18 10:07:03;;;;;;;;;;;;;;;20.60;44.32;100475.31;5053236;28;19963;-60
2023/09/18 10:09:29;;;;;;;;;;;;;;;20.56;44.15;100451.50;5065576;28;19928;-60
2023/09/18 10:11:56;;;;;;;;;;;;;;;20.53;44.22;100462.94;5053473;28;19912;-60
2023/09/18 10:14:32;;;;;;;;;;;;;;;20.55;44.41;100460.78;5052919;28;20007;-60
2023/09/18 10:16:59;;;;;;;;;;;;;;;20.56;44.34;100465.97;5084541;28;19916;-60
2023/09/18 10:19:33;;;;;;;;;;;;;;;20.57;44.49;100459.44;5093187;28;19912;-60
2023/09/18 10:22:11;;;;;;;;;;;;;;;20.58;44.33;100454.78;5093403;28;20364;-60
2023/09/18 10:24:37;;;;;;;;;;;;;;;20.60;44.51;100460.84;5077001;28;20032;-60
2023/09/18 10:27:03;;;;;;;;;;;;;;;20.61;44.29;100463.31;5076143;28;19919;-60
2023/09/18 10:29:30;;;;;;;;;;;;;;;20.61;44.59;100465.22;5078846;28;20010;-60
2023/09/18 10:31:55;;;;;;;;;;;;;;;20.63;44.10;100461.13;5072756;28;19919;-60
2023/09/18 10:34:22;;;;;;;;;;;;;;;20.63;44.23;100455.69;5072814;28;19917;-60
2023/09/18 10:36:48;;;;;;;;;;;;;;;20.62;44.04;100461.41;5072757;28;19931;-60
2023/09/18 10:39:19;;;;;;;;;;;;;;;20.62;44.10;100451.31;5072664;28;20007;-59
2023/09/18 10:41:45;;;;;;;;;;;;;;;20.56;44.09;100446.03;5072884;28;19970;-60
2023/09/18 10:44:11;;;;;;;;;;;;;;;20.53;44.78;100452.84;5072654;28;19948;-60
2023/09/18 10:46:36;;;;;;;;;;;;;;;20.50;44.64;100447.91;5075071;28;19962;-60
2023/09/18 10:49:03;;;;;;;;;;;;;;;20.49;45.17;100446.28;5076355;28;19920;-59
2023/09/18 10:51:29;;;;;;;;;;;;;;;20.50;45.42;100434.25;5076329;28;19923;-60
2023/09/18 10:53:56;;;;;;;;;;;;;;;20.52;45.19;100434.00;5075565;28;19916;-60
2023/09/18 10:56:22;;;;;;;;;;;;;;;20.58;45.21;100433.81;5058194;28;19919;-60
2023/09/18 10:58:55;;;;;;;;;;;;;;;20.57;44.92;100425.88;5076359;28;19917;-60
2023/09/18 11:01:23;;;;;;;;;;;;;;;20.59;45.20;100419.06;5075782;28;19913;-60
2023/09/18 11:03:49;;;;;;;;;;;;;;;20.57;44.95;100415.78;5076180;28;19912;-60
2023/09/18 11:06:17;;;;;;;;;;;;;;;20.56;45.30;100418.75;5076202;28;20308;-59
2023/09/18 11:08:46;;;;;;;;;;;;;;;20.59;44.74;100410.88;5076118;28;20057;-60
2023/09/18 11:11:14;;;;;;;;;;;;;;;20.59;44.33;100408.13;5061553;28;19913;-60
2023/09/18 11:13:39;;;;;;;;;;;;;;;20.58;44.81;100395.59;5055867;28;20550;-60
2023/09/18 11:16:24;;;;;;;;;;;;;;;20.59;44.92;100377.31;5054901;28;20057;-60
2023/09/18 11:19:09;;;;;;;;;;;;;;;20.53;45.18;100375.66;5096266;28;19912;-62
2023/09/18 11:21:34;;;;;;;;;;;;;;;20.52;44.96;100373.97;5056352;28;20294;-60
2023/09/18 11:24:00;;;;;;;;;;;;;;;20.49;45.13;100372.63;5056187;28;19920;-60
2023/09/18 11:26:28;;;;;;;;;;;;;;;20.51;44.83;100365.00;5055958;28;19920;-60
2023/09/18 11:28:54;;;;;;;;;;;;;;;20.46;44.60;100364.94;5093023;28;19920;-60
2023/09/18 11:31:21;;;;;;;;;;;;;;;20.48;44.58;100368.22;5096242;28;19912;-59
2023/09/18 11:33:47;;;;;;;;;;;;;;;20.45;44.66;100363.31;5095808;28;20430;-59
2023/09/18 11:36:14;;;;;;;;;;;;;;;20.50;44.67;100356.00;5095973;28;19916;-60
2023/09/18 11:38:56;;;;;;;;;;;;;;;20.56;44.64;100345.09;5087199;28;19916;-60
2023/09/18 11:41:23;;;;;;;;;;;;;;;20.58;44.83;100335.56;5075537;28;19912;-60
2023/09/18 11:43:48;;;;;;;;;;;;;;;20.55;44.88;100340.72;5075776;28;19956;-60
2023/09/18 11:46:18;;;;;;;;;;;;;;;20.56;44.61;100345.94;5075443;28;19959;-60
2023/09/18 11:48:43;;;;;;;;;;;;;;;20.55;44.77;100336.09;5075741;28;19938;-60
2023/09/18 11:51:11;;;;;;;;;;;;;;;20.46;44.83;100341.22;5075445;28;19923;-60
2023/09/18 11:53:40;;;;;;;;;;;;;;;20.44;45.21;100342.56;5075417;28;19924;-59
2023/09/18 11:56:14;;;;;;;;;;;;;;;20.45;45.10;100341.50;5087161;28;19919;-60
2023/09/18 11:58:50;;;;;;;;;;;;;;;20.45;45.50;100330.59;5096193;28;20330;-60
2023/09/18 12:01:15;;;;;;;;;;;;;;;20.44;45.08;100337.09;5087332;28;19938;-59
2023/09/18 12:03:41;;;;;;;;;;;;;;;20.37;45.38;100337.31;5055173;28;20011;-59
2023/09/18 12:06:08;;;;;;;;;;;;;;;20.31;45.36;100328.28;5055261;28;19923;-60
2023/09/18 12:08:35;;;;;;;;;;;;;;;20.29;46.08;100332.38;5055155;28;19921;-58
2023/09/18 12:11:05;;;;;;;;;;;;;;;20.31;46.37;100322.81;5068552;28;19965;-60
2023/09/18 12:13:30;;;;;;;;;;;;;;;20.31;46.44;100322.81;5075157;28;19955;-60
2023/09/18 12:15:56;;;;;;;;;;;;;;;20.34;46.34;100315.19;5076095;28;20372;-59
2023/09/18 12:18:24;;;;;;;;;;;;;;;20.36;46.33;100297.50;5075484;28;19999;-59
2023/09/18 12:20:50;;;;;;;;;;;;;;;20.33;46.36;100295.28;5075246;28;19912;-59
2023/09/18 12:23:15;;;;;;;;;;;;;;;20.38;46.17;100291.81;5074972;28;19935;-60
2023/09/18 12:25:41;;;;;;;;;;;;;;;20.41;45.71;100285.78;5074871;28;19912;-60
2023/09/18 12:28:07;;;;;;;;;;;;;;;20.38;46.04;100283.63;5083702;28;19923;-60
2023/09/18 12:30:33;;;;;;;;;;;;;;;20.41;46.30;100275.72;5074858;28;20057;-59
2023/09/18 12:32:59;;;;;;;;;;;;;;;20.46;45.55;100266.75;5074558;28;20424;-60